Pagrindinis puslapis
METAR-TAF:

METAR-TAF

Oro uostai :

Kivalina, Aliaska, Jungtinės Amerikos Valstijos

platuma: 67-44N, ilguma: 164-33W, Aukštis: 4 m

Dabartinis oras

Ataskaita buvo paskelbta 48 minutes, ne 19:02 UTC
Vėjas 8 kt iš Rytų/Šiaurės Rytų
Temperatūra -13°C
Drėgmė 100%
Slėgis 1021 hPa
Matomumas: 0.4 km
įšaldymas rūko

METAR: PAVL 281902Z AUTO 06008KT 1/4SM FZFG M13/M13 A3014 RMK AO2 T11281133 FZRANO TSNO $

Laikas: 11:50 (19:50 UTC)


TAF: trūkstamas

Orai ataskaitas ir orų prognozės (METAR, TAF).

turimą stotys yra geltonos ir raudonos taškus žemėlapyje.

Perkelti pele per norėdami pamatyti stoties vardą.

Tada spustelėkite, norėdami matyti oro stebėjimo ir prognozės.

Norėdami pakeisti žemėlapį: spustelėkite ant žalios mygtukų su juodo kryžiaus žemyn,; žalią mygtuką su brūkšneliu, jei norite nutolinti; arba žalių rodyklių gretimoms žemėlapius.


METAR-TAF: